createdAt,value
2023-05-15T00:02:35.148Z,10.07
2023-05-15T00:07:38.938Z,9.91
2023-05-15T00:12:40.918Z,9.85
2023-05-15T00:17:42.905Z,9.93
2023-05-15T00:22:46.279Z,10.02
2023-05-15T00:27:48.208Z,10.08
2023-05-15T00:32:50.227Z,9.95
2023-05-15T00:37:53.559Z,9.86
2023-05-15T00:42:56.017Z,9.84
2023-05-15T00:47:59.183Z,9.78
2023-05-15T00:53:03.442Z,9.94
2023-05-15T00:58:06.391Z,9.76
2023-05-15T01:03:08.438Z,9.88
2023-05-15T01:08:18.990Z,9.94
2023-05-15T01:13:23.452Z,9.90
2023-05-15T01:18:32.048Z,9.96
2023-05-15T01:23:45.929Z,10.07
2023-05-15T01:28:58.537Z,9.96
2023-05-15T01:34:07.014Z,10.02
2023-05-15T01:39:11.614Z,10.00
2023-05-15T01:44:20.163Z,9.96
2023-05-15T01:49:26.884Z,9.93
2023-05-15T01:54:29.692Z,9.93
2023-05-15T01:59:33.984Z,9.87
2023-05-15T02:04:38.030Z,9.89
2023-05-15T02:09:41.197Z,9.90
2023-05-15T02:14:46.641Z,9.95
2023-05-15T02:19:48.628Z,9.84
2023-05-15T02:24:50.703Z,9.93
2023-05-15T02:30:13.155Z,9.84
2023-05-15T02:35:21.773Z,9.77
2023-05-15T02:40:25.479Z,9.97
2023-05-15T02:45:29.645Z,9.93
2023-05-15T02:50:31.959Z,9.83
2023-05-15T02:55:34.178Z,9.96
2023-05-15T03:00:37.572Z,10.00
2023-05-15T03:05:39.654Z,9.95
2023-05-15T03:10:41.656Z,9.95
2023-05-15T03:15:45.555Z,9.94
2023-05-15T03:20:49.177Z,9.91
2023-05-15T03:25:51.529Z,9.77
2023-05-15T03:30:54.840Z,9.81
2023-05-15T03:35:56.879Z,9.72
2023-05-15T03:40:58.844Z,9.76
2023-05-15T03:46:02.270Z,9.83
2023-05-15T03:51:04.488Z,9.87
2023-05-15T03:56:06.758Z,9.91
2023-05-15T04:01:10.107Z,9.95
2023-05-15T04:06:12.061Z,9.89
2023-05-15T04:11:13.995Z,9.95
2023-05-15T04:16:17.299Z,9.92
2023-05-15T04:21:19.385Z,10.07
2023-05-15T04:26:21.427Z,10.08
2023-05-15T04:31:24.797Z,10.28
2023-05-15T04:36:27.134Z,10.40
2023-05-15T04:41:30.157Z,10.45
2023-05-15T04:46:34.840Z,10.40
2023-05-15T04:51:37.183Z,10.45
2023-05-15T04:56:39.136Z,10.67
2023-05-15T05:01:42.777Z,10.80
2023-05-15T05:06:44.848Z,10.98
2023-05-15T05:11:47.462Z,10.91
2023-05-15T05:16:50.831Z,11.12
2023-05-15T05:21:52.795Z,11.08
2023-05-15T05:26:54.959Z,11.20
2023-05-15T05:31:58.698Z,11.17
2023-05-15T05:37:00.840Z,11.26
2023-05-15T05:42:02.887Z,11.26
2023-05-15T05:47:06.736Z,11.40
2023-05-15T05:52:09.775Z,11.23
2023-05-15T05:57:12.191Z,11.24
2023-05-15T06:02:15.703Z,11.34
2023-05-15T06:07:17.784Z,11.47
2023-05-15T06:12:21.588Z,12.01
2023-05-15T06:17:26.238Z,11.87
2023-05-15T06:22:28.273Z,11.85
2023-05-15T06:27:30.438Z,12.10
2023-05-15T06:32:34.614Z,12.25
2023-05-15T06:37:37.193Z,12.28
2023-05-15T06:42:39.163Z,12.30
2023-05-15T06:47:42.502Z,12.32
2023-05-15T06:52:44.561Z,12.02
2023-05-15T06:57:46.919Z,12.07
2023-05-15T07:02:50.310Z,11.84
2023-05-15T07:07:52.656Z,12.09
2023-05-15T07:12:54.919Z,11.81
2023-05-15T07:17:58.502Z,11.81
2023-05-15T07:23:00.605Z,11.85
2023-05-15T07:28:02.607Z,12.16
2023-05-15T07:33:06.116Z,12.57
2023-05-15T07:38:08.427Z,12.71
2023-05-15T07:43:10.426Z,12.37
2023-05-15T07:48:18.215Z,12.33
2023-05-15T07:53:20.198Z,12.63
2023-05-15T07:58:23.221Z,12.54
2023-05-15T08:03:26.725Z,12.82
2023-05-15T08:08:28.751Z,12.66
2023-05-15T08:13:30.748Z,12.67
2023-05-15T08:18:34.212Z,12.74
2023-05-15T08:23:36.279Z,13.10
2023-05-15T08:28:38.250Z,13.20
2023-05-15T08:33:41.554Z,13.34
2023-05-15T08:38:43.514Z,13.50
2023-05-15T08:43:46.223Z,13.52
2023-05-15T08:48:51.415Z,13.57
2023-05-15T08:53:53.530Z,13.61
2023-05-15T08:58:55.666Z,13.50
2023-05-15T09:03:59.002Z,13.77
2023-05-15T09:09:02.149Z,13.71
2023-05-15T09:14:04.713Z,13.76
2023-05-15T09:19:09.006Z,14.44
2023-05-15T09:24:19.384Z,14.16
2023-05-15T09:29:21.384Z,13.95
2023-05-15T09:34:31.225Z,14.05
2023-05-15T09:39:33.989Z,14.06
2023-05-15T09:44:36.268Z,13.79
2023-05-15T09:49:39.956Z,14.13
2023-05-15T09:59:48.985Z,14.14
2023-05-15T10:04:56.797Z,14.41
2023-05-15T10:09:59.543Z,14.68
2023-05-15T10:15:02.457Z,15.26
2023-05-15T10:20:07.718Z,15.56
2023-05-15T10:25:18.446Z,16.78
2023-05-15T10:30:21.686Z,16.94
2023-05-15T10:35:26.168Z,16.84
2023-05-15T10:40:28.939Z,16.81
2023-05-15T10:45:31.750Z,16.89
2023-05-15T10:50:36.732Z,16.22
2023-05-15T10:55:38.849Z,16.89
2023-05-15T11:00:41.772Z,16.30
2023-05-15T11:06:09.921Z,16.33
2023-05-15T11:11:46.097Z,16.81
2023-05-15T11:16:58.415Z,18.36
2023-05-15T11:22:04.082Z,18.81
2023-05-15T11:27:06.790Z,18.91
2023-05-15T11:32:31.389Z,18.84
2023-05-15T11:37:37.743Z,18.47
2023-05-15T11:42:40.302Z,17.45
2023-05-15T11:47:45.323Z,16.43
2023-05-15T11:52:49.346Z,15.75
2023-05-15T11:57:51.319Z,15.47
2023-05-15T12:02:53.418Z,15.62
2023-05-15T12:07:58.135Z,15.09
2023-05-15T12:13:00.134Z,16.43
2023-05-15T12:18:03.643Z,17.38
2023-05-15T12:23:08.358Z,16.78
2023-05-15T12:28:12.822Z,16.86
2023-05-15T12:33:15.293Z,16.79
2023-05-15T12:38:18.737Z,16.70
2023-05-15T12:43:24.791Z,16.63
2023-05-15T12:48:32.046Z,16.41
2023-05-15T12:53:36.158Z,15.77
2023-05-15T12:58:38.325Z,14.99
2023-05-15T13:03:42.423Z,15.35
2023-05-15T13:08:47.705Z,15.15
2023-05-15T13:13:50.372Z,14.24
2023-05-15T13:18:53.310Z,14.90
2023-05-15T13:23:56.972Z,16.12
2023-05-15T13:28:58.958Z,16.69
2023-05-15T13:34:01.171Z,16.09
2023-05-15T13:39:04.738Z,16.25
2023-05-15T13:44:06.887Z,15.71
2023-05-15T13:49:11.169Z,15.86
2023-05-15T13:54:14.465Z,17.11
2023-05-15T13:59:16.444Z,17.67
2023-05-15T14:04:18.632Z,17.96
2023-05-15T14:09:21.984Z,17.47
2023-05-15T14:14:23.956Z,17.51
2023-05-15T14:19:25.962Z,16.36
2023-05-15T14:24:29.216Z,17.03
2023-05-15T14:29:31.604Z,16.75
2023-05-15T14:34:34.119Z,17.27
2023-05-15T14:39:37.501Z,16.29
2023-05-15T14:44:39.507Z,15.91
2023-05-15T14:49:41.509Z,16.23
2023-05-15T14:54:47.505Z,16.24
2023-05-15T14:59:56.136Z,16.23
2023-05-15T15:04:58.287Z,16.52
2023-05-15T15:10:01.458Z,16.18
2023-05-15T15:15:04.927Z,15.74
2023-05-15T15:20:08.253Z,15.70
2023-05-15T15:25:12.072Z,15.96
2023-05-15T15:30:15.820Z,15.75
2023-05-15T15:35:17.797Z,15.73
2023-05-15T15:40:23.501Z,16.63
2023-05-15T15:45:25.770Z,17.88
2023-05-15T15:50:27.950Z,17.78
2023-05-15T15:55:31.369Z,17.58
2023-05-15T16:00:33.583Z,16.74
2023-05-15T16:05:35.507Z,15.88
2023-05-15T16:10:38.823Z,15.95
2023-05-15T16:15:40.827Z,15.63
2023-05-15T16:20:42.848Z,15.68
2023-05-15T16:25:46.259Z,15.58
2023-05-15T16:30:51.020Z,15.43
2023-05-15T16:40:57.051Z,15.34
2023-05-15T16:45:59.130Z,15.13
2023-05-15T16:51:01.348Z,15.20
2023-05-15T16:56:05.262Z,15.17
2023-05-15T17:01:07.563Z,14.90
2023-05-15T17:06:09.514Z,14.88
2023-05-15T17:11:13.396Z,14.57
2023-05-15T17:16:15.475Z,14.50
2023-05-15T17:21:17.491Z,14.74
2023-05-15T17:26:21.580Z,14.38
2023-05-15T17:31:23.735Z,14.51
2023-05-15T17:36:26.126Z,14.41
2023-05-15T17:41:29.433Z,14.35
2023-05-15T17:46:31.532Z,14.28
2023-05-15T17:51:33.592Z,14.02
2023-05-15T17:56:36.934Z,14.06
2023-05-15T18:01:38.969Z,14.08
2023-05-15T18:06:41.348Z,13.99
2023-05-15T18:11:44.655Z,13.85
2023-05-15T18:16:46.667Z,13.66
2023-05-15T18:21:48.948Z,13.45
2023-05-15T18:26:52.306Z,13.31
2023-05-15T18:31:54.427Z,13.04
2023-05-15T18:36:56.494Z,13.18
2023-05-15T18:42:00.317Z,13.04
2023-05-15T18:47:02.491Z,12.97
2023-05-15T18:52:05.112Z,13.01
2023-05-15T18:57:08.394Z,12.86
2023-05-15T19:02:10.428Z,12.93
2023-05-15T19:07:12.404Z,12.84
2023-05-15T19:12:15.882Z,12.64
2023-05-15T19:17:20.085Z,12.28
2023-05-15T19:22:22.182Z,12.12
2023-05-15T19:27:26.315Z,11.73
2023-05-15T19:32:28.438Z,11.58
2023-05-15T19:37:30.566Z,11.61
2023-05-15T19:42:33.928Z,11.67
2023-05-15T19:47:35.937Z,11.77
2023-05-15T19:52:37.906Z,11.52
2023-05-15T19:57:42.594Z,11.52
2023-05-15T20:02:44.679Z,11.43
2023-05-15T20:07:46.803Z,11.19
2023-05-15T20:12:50.163Z,10.81
2023-05-15T20:17:53.623Z,10.74
2023-05-15T20:22:55.672Z,10.85
2023-05-15T20:28:00.699Z,11.10
2023-05-15T20:33:02.919Z,11.23
2023-05-15T20:38:04.953Z,11.20
2023-05-15T20:43:08.266Z,11.34
2023-05-15T20:48:11.193Z,11.23
2023-05-15T20:53:13.384Z,11.22
2023-05-15T20:58:16.795Z,11.08
2023-05-15T21:03:18.877Z,11.07
2023-05-15T21:08:21.053Z,10.89
2023-05-15T21:13:24.367Z,11.08
2023-05-15T21:18:26.347Z,10.97
2023-05-15T21:23:28.359Z,10.90
2023-05-15T21:28:31.858Z,10.84
2023-05-15T21:33:33.963Z,10.72
2023-05-15T21:38:35.895Z,10.65
2023-05-15T21:43:39.258Z,10.58
2023-05-15T21:48:41.236Z,10.52
2023-05-15T21:53:43.339Z,10.39
2023-05-15T21:58:46.860Z,10.47
2023-05-15T22:03:48.908Z,10.48
2023-05-15T22:08:51.110Z,10.45
2023-05-15T22:13:54.413Z,10.39
2023-05-15T22:18:56.447Z,10.70
2023-05-15T22:23:58.670Z,10.60
2023-05-15T22:29:01.991Z,10.66
2023-05-15T22:34:04.051Z,10.50
2023-05-15T22:39:06.999Z,10.37
2023-05-15T22:44:10.185Z,10.37
2023-05-15T22:49:23.421Z,10.42
2023-05-15T22:54:25.720Z,10.45
2023-05-15T22:59:28.992Z,10.54
2023-05-15T23:04:30.940Z,10.41
2023-05-15T23:09:32.898Z,10.66
2023-05-15T23:14:36.208Z,10.65
2023-05-15T23:19:38.520Z,10.57
2023-05-15T23:24:40.612Z,10.56
2023-05-15T23:29:43.887Z,10.60
2023-05-15T23:34:46.372Z,10.58
2023-05-15T23:39:48.407Z,10.63
2023-05-15T23:44:51.717Z,10.55
2023-05-15T23:49:53.666Z,10.55
2023-05-15T23:54:55.764Z,10.60
2023-05-15T23:59:59.540Z,10.55
